createdAt,value
2018-06-25T11:20:20.180Z,97065.53
2018-06-25T11:21:28.084Z,97060.45
2018-06-25T11:22:40.639Z,97060.57
2018-06-25T11:23:47.573Z,97067.40
2018-06-25T11:24:54.018Z,97060.42
2018-06-25T11:26:00.837Z,97064.51
2018-06-25T11:27:08.424Z,97062.40
2018-06-25T11:28:15.032Z,97060.30
2018-06-25T11:29:21.964Z,97057.90
2018-06-25T11:30:33.666Z,97060.89
2018-06-25T11:31:40.560Z,97065.55
2018-06-25T11:32:47.732Z,97064.52
2018-06-25T11:33:54.650Z,97066.70
2018-06-25T11:35:06.840Z,97069.72
2018-06-25T11:36:13.849Z,97065.40
2018-06-25T11:37:26.098Z,97067.84
2018-06-25T11:38:32.902Z,97067.03
2018-06-25T11:39:40.467Z,97073.58
2018-06-25T11:40:47.364Z,97073.31
2018-06-25T11:41:54.443Z,97069.53
2018-06-25T11:43:00.566Z,97073.91
2018-06-25T11:44:07.444Z,97069.04
2018-06-25T11:45:14.449Z,97069.90
2018-06-25T11:46:21.604Z,97068.02
2018-06-25T11:47:33.603Z,97071.59
2018-06-25T11:48:40.528Z,97065.68
2018-06-25T11:49:47.455Z,97062.45
2018-06-25T11:50:59.410Z,97057.89
2018-06-25T11:52:06.249Z,97062.78
2018-06-25T11:53:13.144Z,97060.94
2018-06-25T11:54:20.313Z,97064.73
2018-06-25T11:55:32.498Z,97055.85
2018-06-25T11:56:39.058Z,97069.39
2018-06-25T11:57:51.031Z,97054.78
2018-06-25T11:58:57.974Z,97056.41
2018-06-25T12:00:05.070Z,97059.13
2018-06-25T12:01:12.186Z,97060.48
2018-06-25T12:02:18.956Z,97060.25
2018-06-25T12:03:25.857Z,97058.63
2018-06-25T12:04:39.345Z,97059.98
2018-06-25T12:05:46.305Z,97063.23
2018-06-25T12:06:52.831Z,97065.66
2018-06-25T12:08:01.100Z,97067.55
2018-06-25T12:09:10.195Z,97062.42
2018-06-25T12:10:16.915Z,97065.13
2018-06-25T12:11:23.651Z,97072.75
2018-06-25T12:12:30.976Z,97067.08
2018-06-25T12:13:37.631Z,97072.48
2018-06-25T12:14:44.273Z,97070.88
2018-06-25T12:15:50.827Z,97070.64
2018-06-25T12:16:57.975Z,97082.55
2018-06-25T12:18:04.756Z,97079.84
2018-06-25T12:19:11.484Z,97080.66
2018-06-25T12:20:18.008Z,97082.28
2018-06-25T12:21:24.763Z,97088.24
2018-06-25T14:48:20.662Z,97120.45
2018-06-25T14:51:59.590Z,97126.09
2018-06-25T14:53:06.546Z,97134.11
2018-06-25T14:54:12.720Z,97128.07
2018-06-25T14:55:18.891Z,97129.25
2018-06-25T14:56:25.254Z,97131.27
2018-06-25T14:57:31.638Z,97132.51
2018-06-25T14:58:38.114Z,97135.36
2018-06-25T14:59:44.337Z,97126.41
2018-06-25T15:00:50.853Z,97130.41
2018-06-25T15:01:57.072Z,97129.52
2018-06-25T15:03:03.383Z,97123.23
2018-06-25T15:04:09.872Z,97116.20
2018-06-25T15:05:16.272Z,97121.84
2018-06-25T15:06:22.390Z,97114.50
2018-06-25T15:07:28.558Z,97116.14
2018-06-25T15:08:34.646Z,97111.77
2018-06-25T15:09:41.015Z,97108.48
2018-06-25T15:10:47.204Z,97107.31
2018-06-25T15:11:53.983Z,97102.67
2018-06-25T15:13:00.417Z,97100.96
2018-06-25T15:14:06.792Z,97095.49
2018-06-25T15:15:12.998Z,97099.19
2018-06-25T15:16:19.182Z,97099.63
2018-06-25T15:17:25.614Z,97106.03
2018-06-25T15:18:31.806Z,97101.38
2018-06-25T15:19:37.970Z,97097.91
2018-06-25T15:20:44.204Z,97088.49
2018-06-25T15:21:50.762Z,97101.73
2018-06-25T15:22:56.934Z,97098.59
2018-06-25T15:24:03.200Z,97100.77
2018-06-25T15:25:09.453Z,97102.13
2018-06-25T15:26:15.721Z,97098.66
2018-06-25T15:27:22.197Z,97091.13
2018-06-25T15:28:28.872Z,97083.02
2018-06-25T15:29:35.256Z,97088.69
2018-06-25T15:30:41.468Z,97079.55
2018-06-25T15:31:48.146Z,97080.40
2018-06-25T15:32:54.607Z,97092.30
2018-06-25T15:34:03.127Z,97085.63
2018-06-25T15:35:09.401Z,97090.27
2018-06-25T15:36:16.196Z,97091.09
2018-06-25T15:37:22.426Z,97090.33
2018-06-25T15:38:43.905Z,97086.36
2018-06-25T15:39:50.739Z,97089.08
2018-06-25T15:40:57.415Z,97088.03
2018-06-25T15:42:03.652Z,97084.24
2018-06-25T15:43:14.802Z,97079.92
2018-06-25T15:44:24.383Z,97083.16
2018-06-25T15:45:33.012Z,97077.48
2018-06-25T15:46:39.123Z,97078.84
2018-06-25T15:47:45.119Z,97076.13
2018-06-25T15:48:56.545Z,97080.14
2018-06-25T15:50:02.817Z,97082.54
2018-06-25T15:51:09.073Z,97072.80
2018-06-25T15:52:15.105Z,97082.80
2018-06-25T15:53:27.041Z,97078.25
2018-06-25T15:54:33.441Z,97071.81
2018-06-25T15:55:43.053Z,97075.87
2018-06-25T15:56:54.235Z,97071.81
2018-06-25T15:58:00.565Z,97071.83
2018-06-25T15:59:06.774Z,97074.25
2018-06-25T16:00:13.139Z,97072.62
2018-06-25T16:01:19.314Z,97069.11
2018-06-25T16:02:25.477Z,97071.00
2018-06-25T16:03:31.491Z,97070.16
2018-06-25T16:04:42.803Z,97071.73
2018-06-25T16:05:54.188Z,97070.05
2018-06-25T16:07:00.476Z,97066.22
2018-06-25T16:08:06.541Z,97064.60
2018-06-25T16:09:12.846Z,97067.61
2018-06-25T16:10:19.054Z,97070.55
2018-06-25T16:11:25.185Z,97072.71
2018-06-25T16:12:36.718Z,97072.75
2018-06-25T16:13:42.918Z,97067.67
2018-06-25T16:14:49.065Z,97076.63
2018-06-25T16:15:55.374Z,97065.05
2018-06-25T16:17:06.912Z,97069.94
2018-06-25T16:18:13.136Z,97073.45
2018-06-25T16:19:19.217Z,97075.11
2018-06-25T16:20:25.618Z,97079.98
2018-06-25T16:21:31.970Z,97079.94
2018-06-25T16:22:38.248Z,97075.30
2018-06-25T16:23:45.601Z,97073.66
2018-06-25T16:24:51.722Z,97078.48
2018-06-25T16:25:57.960Z,97076.31
2018-06-25T16:27:04.242Z,97076.00
2018-06-25T16:28:10.680Z,97072.48
2018-06-25T16:29:18.333Z,97074.05
2018-06-25T16:30:24.527Z,97076.67
2018-06-25T16:31:30.824Z,97077.16
2018-06-25T16:32:36.981Z,97072.89
2018-06-25T16:33:43.078Z,97066.39
2018-06-25T16:34:49.549Z,97071.76
2018-06-25T16:35:55.790Z,97065.53
2018-06-25T16:37:02.146Z,97071.48
2018-06-25T16:38:08.334Z,97071.76
2018-06-25T16:39:14.934Z,97070.99
2018-06-25T16:40:21.175Z,97065.59
2018-06-25T16:41:27.503Z,97064.02
2018-06-25T16:42:33.788Z,97074.55
2018-06-25T16:43:40.038Z,97068.38
2018-06-25T16:44:46.466Z,97067.84
2018-06-25T16:45:52.707Z,97068.34
2018-06-25T16:47:00.957Z,97063.23
2018-06-25T16:48:07.588Z,97068.06
2018-06-25T16:49:16.366Z,97067.20
2018-06-25T16:50:28.595Z,97067.75
2018-06-25T16:51:39.688Z,97060.70
2018-06-25T16:52:47.329Z,97061.80
2018-06-25T16:53:54.773Z,97059.05
2018-06-25T16:55:02.558Z,97063.32
2018-06-25T16:56:08.836Z,97067.09
2018-06-25T16:57:15.162Z,97066.57
2018-06-25T16:58:21.380Z,97061.20
2018-06-25T16:59:27.548Z,97067.97
2018-06-25T17:00:33.936Z,97062.65
2018-06-25T17:01:43.325Z,97060.48
2018-06-25T17:02:50.307Z,97066.17
2018-06-25T17:03:58.384Z,97064.91
2018-06-25T17:05:04.635Z,97060.86
2018-06-25T17:07:16.235Z,97069.02
2018-06-25T17:08:22.415Z,97070.64
2018-06-25T17:09:28.431Z,97067.34
2018-06-25T17:10:42.674Z,97070.31
2018-06-25T17:11:49.777Z,97080.28
2018-06-25T17:12:55.976Z,97075.96
2018-06-25T17:14:11.105Z,97077.08
2018-06-25T17:15:33.746Z,97077.08
2018-06-25T17:16:41.441Z,97080.50
2018-06-25T17:17:47.488Z,97085.87
2018-06-25T17:18:53.833Z,97082.08
2018-06-25T17:20:01.264Z,97084.69
2018-06-25T17:21:07.097Z,97083.55
2018-06-25T17:22:12.979Z,97084.31
2018-06-25T17:23:19.656Z,97083.77
2018-06-25T17:24:25.874Z,97084.31
2018-06-25T17:25:31.860Z,97090.00
2018-06-25T17:26:38.363Z,97085.22
2018-06-25T17:27:44.174Z,97083.02
2018-06-25T17:28:50.105Z,97087.62
2018-06-25T17:29:56.370Z,97086.84
2018-06-25T17:31:04.703Z,97080.90
2018-06-25T17:32:10.508Z,97085.28
2018-06-25T17:33:16.546Z,97082.62
2018-06-25T17:34:23.720Z,97087.57
2018-06-25T17:35:33.619Z,97085.14
2018-06-25T17:36:39.833Z,97084.92
2018-06-25T17:37:45.879Z,97078.27
2018-06-25T17:38:53.472Z,97084.25
2018-06-25T17:39:59.675Z,97083.50
2018-06-25T17:41:05.599Z,97077.59
2018-06-25T17:42:11.678Z,97085.70
2018-06-25T17:43:17.586Z,97085.39
2018-06-25T17:44:25.725Z,97086.74
2018-06-25T17:45:34.044Z,97084.58
2018-06-25T17:46:40.854Z,97083.77
2018-06-25T17:47:48.521Z,97092.45
2018-06-25T17:48:54.709Z,97085.25
2018-06-25T17:50:01.152Z,97090.12
2018-06-25T17:51:08.605Z,97087.45
2018-06-25T17:52:14.527Z,97082.09
2018-06-25T17:53:23.154Z,97087.27
2018-06-25T17:54:29.710Z,97088.92
2018-06-25T17:55:37.236Z,97088.66
2018-06-25T17:56:43.789Z,97088.70
2018-06-25T17:57:49.864Z,97087.63
2018-06-25T17:58:56.019Z,97089.81
2018-06-25T18:00:02.234Z,97087.42
2018-06-25T18:01:08.971Z,97088.01
2018-06-25T18:02:15.360Z,97091.59
2018-06-25T18:03:21.607Z,97086.51
2018-06-25T18:04:28.622Z,97097.37
2018-06-25T18:05:34.781Z,97093.64
2018-06-25T18:06:41.585Z,97101.77
2018-06-25T18:07:47.798Z,97097.45
2018-06-25T18:08:54.204Z,97094.72
2018-06-25T18:10:02.431Z,97094.18
2018-06-25T18:11:11.120Z,97095.49
2018-06-25T18:12:19.700Z,97096.80
2018-06-25T18:13:26.986Z,97092.45
2018-06-25T18:14:35.277Z,97096.42
2018-06-25T18:15:42.547Z,97102.28
2018-06-25T18:16:48.590Z,97104.64
2018-06-25T18:17:54.663Z,97103.20
2018-06-25T18:19:03.615Z,97107.45
2018-06-25T18:20:09.795Z,97099.53
2018-06-25T18:21:16.541Z,97095.97
2018-06-25T18:22:22.661Z,97103.22
2018-06-25T18:23:28.799Z,97105.61
2018-06-25T18:24:36.131Z,97107.17
2018-06-25T18:25:42.270Z,97101.19
2018-06-25T18:26:49.168Z,97107.86
2018-06-25T18:27:55.429Z,97102.17
2018-06-25T18:29:01.405Z,97103.80
2018-06-25T18:30:08.223Z,97111.31
2018-06-25T18:31:16.099Z,97105.60
2018-06-25T18:32:22.325Z,97099.06
2018-06-25T18:33:28.445Z,97101.50
2018-06-25T18:34:34.729Z,97100.96
2018-06-25T18:35:42.843Z,97097.71
2018-06-25T18:36:51.130Z,97103.43
2018-06-25T18:37:57.141Z,97099.16
2018-06-25T18:39:03.460Z,97101.09
2018-06-25T18:40:10.232Z,97100.30
2018-06-25T18:41:17.653Z,97104.16
2018-06-25T18:42:23.781Z,97107.67
2018-06-25T18:43:30.060Z,97109.84
2018-06-25T18:44:36.307Z,97111.19
2018-06-25T18:45:42.573Z,97114.75
2018-06-25T18:46:49.597Z,97115.83
2018-06-25T18:47:56.329Z,97120.69
2018-06-25T18:49:08.993Z,97119.03
2018-06-25T18:50:15.408Z,97124.44
2018-06-25T18:51:22.285Z,97125.30
2018-06-25T18:52:31.401Z,97131.28
2018-06-25T18:53:49.033Z,97132.91
2018-06-25T18:54:55.559Z,97128.85
2018-06-25T18:56:01.572Z,97135.89
2018-06-25T18:57:09.233Z,97135.89
2018-06-25T18:58:15.393Z,97139.67
2018-06-25T18:59:22.812Z,97144.05
2018-06-25T19:00:29.842Z,97138.72
2018-06-25T19:01:35.920Z,97142.80
2018-06-25T19:02:42.158Z,97139.61
2018-06-25T19:03:49.711Z,97141.80
2018-06-25T19:05:10.593Z,97140.45
2018-06-25T19:06:17.659Z,97141.58
2018-06-25T19:07:27.143Z,97137.56
2018-06-25T19:08:33.348Z,97140.03
2018-06-25T19:09:39.461Z,97146.02
2018-06-25T19:10:46.409Z,97142.81
2018-06-25T19:12:01.613Z,97142.84
2018-06-25T19:13:08.407Z,97144.47
2018-06-25T19:14:14.531Z,97150.41
2018-06-25T19:15:20.696Z,97153.88
2018-06-25T19:16:26.781Z,97156.28
2018-06-25T19:17:32.890Z,97157.05
2018-06-25T19:18:39.011Z,97157.36
2018-06-25T19:19:45.307Z,97160.88
2018-06-25T19:20:51.303Z,97156.82
2018-06-25T19:21:57.349Z,97158.75
2018-06-25T19:23:05.236Z,97154.19
2018-06-25T19:24:13.099Z,97158.55
2018-06-25T19:25:19.663Z,97159.97
2018-06-25T19:26:26.012Z,97161.09
2018-06-25T19:27:38.645Z,97159.86
2018-06-25T19:28:44.939Z,97162.59
2018-06-25T19:29:52.082Z,97162.87
2018-06-25T19:31:10.709Z,97165.33
2018-06-25T19:32:17.417Z,97166.70
2018-06-25T19:33:23.445Z,97167.81
2018-06-25T19:34:30.046Z,97173.24
2018-06-25T19:35:36.107Z,97168.98
2018-06-25T19:36:43.202Z,97177.89
2018-06-25T19:37:49.513Z,97177.38
2018-06-25T19:38:56.292Z,97173.59
2018-06-25T19:40:02.443Z,97176.30
2018-06-25T19:41:08.901Z,97175.48
2018-06-25T19:42:15.028Z,97179.54
2018-06-25T19:43:21.438Z,97186.55
2018-06-25T19:44:27.937Z,97181.99
2018-06-25T19:45:35.207Z,97185.20
2018-06-25T19:46:41.498Z,97183.05
2018-06-25T19:47:48.360Z,97185.45
2018-06-25T19:48:54.652Z,97190.52
2018-06-25T19:50:00.772Z,97189.98
2018-06-25T19:51:08.148Z,97191.88
2018-06-25T19:52:14.409Z,97196.70
2018-06-25T19:53:20.587Z,97199.67
2018-06-25T19:54:26.663Z,97206.42
2018-06-25T19:55:33.959Z,97209.39
2018-06-25T19:56:41.145Z,97208.61
2018-06-25T19:57:47.360Z,97209.42
2018-06-25T19:58:53.707Z,97207.80
2018-06-25T20:00:00.869Z,97209.69
2018-06-25T20:01:08.341Z,97207.55
2018-06-25T20:02:15.113Z,97207.04
2018-06-25T20:03:21.055Z,97211.11
2018-06-25T20:04:27.581Z,97212.77
2018-06-25T20:05:35.218Z,97213.87
2018-06-25T20:06:41.574Z,97222.77
2018-06-25T20:07:49.173Z,97213.38
2018-06-25T20:08:57.269Z,97214.17
2018-06-25T20:10:04.181Z,97211.23
2018-06-25T20:11:10.880Z,97223.38
2018-06-25T20:12:17.003Z,97223.95
2018-06-25T20:13:24.829Z,97221.56
2018-06-25T20:14:31.240Z,97220.77
2018-06-25T20:15:37.434Z,97216.48
2018-06-25T20:16:43.614Z,97222.95
2018-06-25T20:17:51.492Z,97224.30
2018-06-25T20:19:00.030Z,97217.30
2018-06-25T20:20:09.351Z,97219.50
2018-06-25T20:21:15.439Z,97222.22
2018-06-25T20:22:37.558Z,97221.95
2018-06-25T20:23:48.668Z,97219.52
2018-06-25T20:24:54.922Z,97220.63
2018-06-25T20:26:03.245Z,97219.83
2018-06-25T20:27:09.379Z,97220.94
2018-06-25T20:28:16.633Z,97217.98
2018-06-25T20:29:23.675Z,97224.43
2018-06-25T20:30:29.765Z,97226.05
2018-06-25T20:31:35.727Z,97225.22
2018-06-25T20:32:45.499Z,97218.23
2018-06-25T20:33:57.440Z,97224.19
2018-06-25T20:35:12.699Z,97217.69
2018-06-25T20:36:23.557Z,97214.50
2018-06-25T20:37:31.093Z,97221.50
2018-06-25T20:38:44.396Z,97224.72
2018-06-25T20:39:50.567Z,97220.70
2018-06-25T20:40:56.785Z,97223.13
2018-06-25T20:42:03.064Z,97216.16
2018-06-25T20:43:14.783Z,97222.39
2018-06-25T20:44:20.909Z,97215.64
2018-06-25T20:45:27.020Z,97223.75
2018-06-25T20:46:35.269Z,97212.98
2018-06-25T20:47:42.039Z,97215.42
2018-06-25T20:48:49.593Z,97216.23
2018-06-25T20:49:55.659Z,97224.88
2018-06-25T20:51:01.798Z,97213.59
2018-06-25T20:52:08.334Z,97217.63
2018-06-25T20:53:14.988Z,97221.42
2018-06-25T20:54:21.981Z,97217.67
2018-06-25T20:55:29.140Z,97220.66
2018-06-25T20:56:35.202Z,97216.61
2018-06-25T20:57:45.945Z,97220.38
2018-06-25T20:58:54.952Z,97224.42
2018-06-25T21:00:03.668Z,97227.66
2018-06-25T21:01:09.852Z,97234.14
2018-06-25T21:02:16.076Z,97228.21
2018-06-25T21:03:23.769Z,97227.13
2018-06-25T21:04:31.511Z,97221.22
2018-06-25T21:05:37.698Z,97226.08
2018-06-25T21:06:43.918Z,97226.63
2018-06-25T21:07:50.129Z,97228.78
2018-06-25T21:08:56.171Z,97225.02
2018-06-25T21:10:02.426Z,97223.92
2018-06-25T21:11:09.877Z,97226.89
2018-06-25T21:12:17.214Z,97233.08
2018-06-25T21:13:26.739Z,97227.69
2018-06-25T21:14:33.194Z,97227.43
2018-06-25T21:15:40.991Z,97230.65
2018-06-25T21:16:49.343Z,97226.08
2018-06-25T21:17:57.222Z,97226.08
2018-06-25T21:19:03.483Z,97229.02
2018-06-25T21:20:09.791Z,97224.19
2018-06-25T21:21:15.801Z,97218.81
2018-06-25T21:22:23.357Z,97231.20
2018-06-25T21:23:31.983Z,97227.69
2018-06-25T21:24:38.107Z,97227.97
2018-06-25T21:25:45.583Z,97227.44
2018-06-25T21:26:51.687Z,97230.91
2018-06-25T21:27:58.227Z,97226.87
2018-06-25T21:29:05.007Z,97225.80
2018-06-25T21:30:12.537Z,97227.16
2018-06-25T21:31:22.759Z,97231.73
2018-06-25T21:32:29.813Z,97236.84
2018-06-25T21:33:35.941Z,97242.51
2018-06-25T21:34:42.251Z,97240.08
2018-06-25T21:35:54.055Z,97242.22
2018-06-25T21:37:02.778Z,97240.06
2018-06-25T21:38:09.068Z,97243.30
2018-06-25T21:39:16.644Z,97246.52
2018-06-25T21:40:22.796Z,97240.06
2018-06-25T21:41:29.355Z,97247.60
2018-06-25T21:42:36.075Z,97246.53
2018-06-25T21:43:42.138Z,97251.64
2018-06-25T21:44:48.109Z,97244.92
2018-06-25T21:45:55.185Z,97248.41
2018-06-25T21:47:01.487Z,97255.42
2018-06-25T21:48:07.653Z,97246.55
2018-06-25T21:49:14.923Z,97254.59
2018-06-25T21:50:22.123Z,97251.66
2018-06-25T21:51:28.817Z,97252.44
2018-06-25T21:52:35.125Z,97258.66
2018-06-25T21:53:41.367Z,97258.11
2018-06-25T21:54:47.608Z,97255.67
2018-06-25T21:55:54.595Z,97256.48
2018-06-25T21:57:04.582Z,97250.02
2018-06-25T21:58:10.847Z,97254.59
2018-06-25T21:59:18.065Z,97260.52
